Glenn Dale, Maryland
Current Conditions -  °F | °C
As of 4:30 AM on Wednesday 22 Oct 2014 (Local Time) from KCGS Reporting Station
Overcast Overcast  
Wind Chill: 54°   Ceiling: 6000
Heat Index: 54°   Visibility: 5mi
Dew Point: 52°   Wind: 6mph
Humidity: 94%   Direction: 330°NNW
Pressure: 29.86"   Gusts: NA
Location:  38.99°N, 76.82°W
Report Text: KCGS 220830Z AUTO 33005KT 5SM SCT019 SCT029 OVC060 12/11 A2986 RMK AO1
Loading
Personal Weather Stations






























Interactive Weather Map New forecast layout! Learn more

10-Day Weather Forecast

Advertisements
Track Severe Weather on mobile